Time;durP1;ratioP1;P1;durP2;ratioP2;P2;SDS_P1;SDS_P2;PMS_P1;PMS_P2;Temp;Humidity;BMP_temperature;BMP_pressure;BME280_temperature;BME280_humidity;BME280_pressure;Samples;Min_cycle;Max_cycle;Signal;HPM_P1;HPM_P2
2021/05/26 00:00:34;;;;;;;3.13;2.38;;;9.80;99.90;;;;;;5030113;28;20036;-47
2021/05/26 00:03:00;;;;;;;3.30;2.40;;;9.70;99.90;;;;;;5030566;28;20025;-45
2021/05/26 00:05:25;;;;;;;2.85;2.10;;;9.80;99.90;;;;;;5030621;28;20021;-45
2021/05/26 00:07:51;;;;;;;4.50;2.53;;;9.70;99.90;;;;;;5027727;28;20498;-46
2021/05/26 00:10:16;;;;;;;3.90;2.70;;;9.70;99.90;;;;;;5030183;28;20041;-45
2021/05/26 00:12:42;;;;;;;5.50;2.78;;;9.70;99.90;;;;;;5030425;28;20017;-46
2021/05/26 00:15:09;;;;;;;6.43;3.63;;;9.70;99.90;;;;;;5030573;28;20029;-45
2021/05/26 00:17:35;;;;;;;5.63;2.88;;;9.70;99.90;;;;;;5028498;28;20034;-44
2021/05/26 00:20:00;;;;;;;3.95;3.17;;;9.70;99.90;;;;;;5030347;28;20245;-44
2021/05/26 00:22:26;;;;;;;3.35;3.00;;;9.70;99.90;;;;;;5030383;28;20025;-45
2021/05/26 00:24:51;;;;;;;6.90;2.80;;;9.70;99.90;;;;;;5030151;28;20388;-46
2021/05/26 00:27:17;;;;;;;5.88;3.13;;;9.70;99.90;;;;;;5030330;28;20037;-45
2021/05/26 00:29:43;;;;;;;3.65;2.88;;;9.70;99.90;;;;;;5030033;28;20033;-45
2021/05/26 00:32:08;;;;;;;4.35;3.25;;;9.60;99.90;;;;;;5030244;28;20017;-45
2021/05/26 00:34:34;;;;;;;6.32;3.47;;;9.60;99.90;;;;;;5030233;28;20048;-45
2021/05/26 00:36:59;;;;;;;6.80;4.20;;;9.70;99.90;;;;;;5030105;28;20159;-45
2021/05/26 00:39:25;;;;;;;4.72;3.25;;;9.60;99.90;;;;;;5029057;28;20548;-46
2021/05/26 00:41:50;;;;;;;4.28;3.15;;;9.60;99.90;;;;;;5028460;28;20108;-48
2021/05/26 00:44:16;;;;;;;5.55;3.70;;;9.70;99.90;;;;;;5029827;28;20029;-45
2021/05/26 00:46:44;;;;;;;5.03;2.92;;;9.70;99.90;;;;;;5029886;28;20072;-46
2021/05/26 00:49:10;;;;;;;7.63;3.42;;;9.60;99.90;;;;;;5029540;28;20026;-45
2021/05/26 00:51:36;;;;;;;5.30;3.40;;;9.60;99.90;;;;;;5029784;28;20200;-46
2021/05/26 00:54:03;;;;;;;9.07;3.65;;;9.50;99.90;;;;;;5029595;28;20080;-45
2021/05/26 00:56:28;;;;;;;6.93;3.58;;;9.60;99.90;;;;;;5029335;28;20025;-46
2021/05/26 00:58:54;;;;;;;4.05;3.00;;;9.60;99.90;;;;;;5029104;28;20036;-46
2021/05/26 01:01:19;;;;;;;6.18;3.63;;;9.60;99.90;;;;;;5028751;28;20426;-45
2021/05/26 01:03:45;;;;;;;5.18;3.58;;;9.60;99.90;;;;;;5028080;28;20537;-45
2021/05/26 01:06:11;;;;;;;4.70;3.40;;;9.60;99.90;;;;;;5028296;28;20471;-45
2021/05/26 01:08:36;;;;;;;4.10;3.65;;;9.70;99.90;;;;;;5028781;28;20068;-45
2021/05/26 01:11:04;;;;;;;8.35;3.50;;;9.70;99.90;;;;;;5029659;28;20071;-45
2021/05/26 01:13:30;;;;;;;4.88;3.10;;;9.70;99.90;;;;;;5029548;28;20053;-45
2021/05/26 01:15:56;;;;;;;6.65;4.22;;;9.70;99.90;;;;;;5029249;28;20060;-45
2021/05/26 01:18:30;;;;;;;5.90;3.85;;;9.70;99.90;;;;;;5028247;28;20083;-47
2021/05/26 01:21:02;;;;;;;6.15;3.88;;;9.60;99.90;;;;;;5028693;28;20426;-46
2021/05/26 01:23:28;;;;;;;4.43;3.80;;;9.50;99.90;;;;;;5029304;28;20363;-46
2021/05/26 01:25:56;;;;;;;4.35;3.83;;;9.50;99.90;;;;;;5029240;28;20093;-45
2021/05/26 01:28:24;;;;;;;7.65;4.10;;;9.50;99.90;;;;;;5026787;28;20022;-45
2021/05/26 01:30:50;;;;;;;5.53;4.03;;;9.50;99.90;;;;;;5029186;28;20022;-45
2021/05/26 01:33:16;;;;;;;6.72;4.18;;;9.50;99.90;;;;;;5029129;28;20082;-45
2021/05/26 01:35:44;;;;;;;5.30;4.28;;;9.50;99.90;;;;;;5029701;28;20414;-45
2021/05/26 01:38:17;;;;;;;7.38;4.43;;;9.60;99.90;;;;;;5027567;28;20359;-45
2021/05/26 01:40:43;;;;;;;8.13;4.60;;;9.50;99.90;;;;;;5028683;28;20021;-45
2021/05/26 01:43:10;;;;;;;7.63;4.50;;;9.40;99.90;;;;;;5034427;28;20072;-48
2021/05/26 01:45:35;;;;;;;9.15;4.85;;;9.50;99.90;;;;;;5028831;28;20494;-46
2021/05/26 01:48:01;;;;;;;6.53;4.20;;;9.40;99.90;;;;;;5028090;28;20048;-46
2021/05/26 01:50:27;;;;;;;7.68;4.30;;;9.40;99.90;;;;;;5028419;28;20287;-45
2021/05/26 01:52:54;;;;;;;6.72;4.75;;;9.50;99.90;;;;;;5027046;28;20083;-47
2021/05/26 01:55:20;;;;;;;8.93;4.80;;;9.50;99.90;;;;;;5028631;28;20037;-45
2021/05/26 01:57:46;;;;;;;8.18;4.50;;;9.50;99.90;;;;;;5028223;28;20064;-45
2021/05/26 02:00:15;;;;;;;7.95;4.20;;;9.50;99.90;;;;;;5028395;28;20018;-45
2021/05/26 02:02:40;;;;;;;8.55;4.72;;;9.60;99.90;;;;;;5027960;28;20029;-46
2021/05/26 02:05:08;;;;;;;5.78;4.80;;;9.70;99.90;;;;;;5028612;28;20421;-45
2021/05/26 02:07:33;;;;;;;7.80;4.97;;;9.70;99.90;;;;;;5027865;28;20097;-46
2021/05/26 02:09:59;;;;;;;5.93;4.82;;;9.60;99.90;;;;;;5028287;28;20064;-47
2021/05/26 02:12:24;;;;;;;6.68;4.13;;;9.70;99.90;;;;;;5028340;28;20025;-45
2021/05/26 02:14:54;;;;;;;9.10;4.20;;;9.60;99.90;;;;;;5028344;28;20057;-44
2021/05/26 02:17:21;;;;;;;8.38;4.72;;;9.70;99.90;;;;;;5027800;28;20026;-45
2021/05/26 02:19:47;;;;;;;12.27;4.55;;;9.70;99.90;;;;;;5010421;28;20467;-45
2021/05/26 02:22:13;;;;;;;8.10;4.65;;;9.70;99.90;;;;;;5028636;28;20057;-46
2021/05/26 02:24:40;;;;;;;8.68;4.60;;;9.70;99.90;;;;;;5028298;28;20061;-45
2021/05/26 02:27:05;;;;;;;11.60;4.97;;;9.70;99.90;;;;;;5026909;28;20041;-45
2021/05/26 02:29:31;;;;;;;5.75;4.43;;;9.70;99.90;;;;;;5027581;28;20061;-45
2021/05/26 02:31:56;;;;;;;6.32;4.03;;;9.70;99.90;;;;;;5030942;28;20025;-44
2021/05/26 02:34:22;;;;;;;9.00;5.50;;;9.80;99.90;;;;;;5032481;28;20069;-47
2021/05/26 02:36:47;;;;;;;10.35;4.40;;;9.70;99.90;;;;;;5032387;28;20076;-45
2021/05/26 02:39:13;;;;;;;6.28;4.10;;;9.80;99.90;;;;;;5030376;28;20083;-45
2021/05/26 02:41:39;;;;;;;6.68;5.00;;;9.70;99.90;;;;;;5032458;28;20057;-45
2021/05/26 02:44:04;;;;;;;7.85;4.70;;;9.70;99.90;;;;;;5032392;28;20032;-44
2021/05/26 02:46:30;;;;;;;9.95;4.63;;;9.70;99.90;;;;;;5031852;28;20031;-45
2021/05/26 02:48:56;;;;;;;6.40;4.13;;;9.80;99.90;;;;;;5030922;28;20029;-45
2021/05/26 02:51:22;;;;;;;6.95;3.90;;;9.80;99.90;;;;;;5031485;28;20550;-44
2021/05/26 02:53:47;;;;;;;7.40;4.53;;;9.80;99.90;;;;;;5030848;28;20088;-45
2021/05/26 02:56:14;;;;;;;4.45;4.05;;;9.80;99.90;;;;;;5032366;28;20368;-45
2021/05/26 02:58:40;;;;;;;7.38;4.53;;;9.80;99.90;;;;;;5030199;28;20489;-44
2021/05/26 03:01:06;;;;;;;7.25;4.80;;;9.80;99.90;;;;;;5032017;28;20026;-45
2021/05/26 03:03:32;;;;;;;6.43;5.00;;;9.70;99.90;;;;;;5029802;28;20403;-45
2021/05/26 03:05:57;;;;;;;11.25;5.07;;;9.70;99.90;;;;;;5031848;28;20036;-45
2021/05/26 03:08:23;;;;;;;6.65;5.35;;;9.60;99.90;;;;;;5030997;28;20037;-44
2021/05/26 03:10:48;;;;;;;7.68;5.35;;;9.60;99.90;;;;;;5031559;28;20033;-44
2021/05/26 03:13:14;;;;;;;10.75;5.22;;;9.60;99.90;;;;;;5032110;28;20148;-45
2021/05/26 03:15:40;;;;;;;8.88;5.68;;;9.60;99.90;;;;;;5031567;28;20061;-44
2021/05/26 03:18:06;;;;;;;11.68;6.15;;;9.50;99.90;;;;;;5030719;28;20387;-45
2021/05/26 03:20:32;;;;;;;7.85;5.30;;;9.60;99.90;;;;;;5031563;28;20445;-46
2021/05/26 03:22:58;;;;;;;9.55;6.50;;;9.60;99.90;;;;;;5031294;28;20387;-46
2021/05/26 03:25:24;;;;;;;14.05;6.32;;;9.60;99.90;;;;;;5031240;28;20025;-45
2021/05/26 03:27:50;;;;;;;7.63;6.03;;;9.60;99.90;;;;;;5030949;28;20105;-45
2021/05/26 03:30:17;;;;;;;9.73;6.60;;;9.60;99.90;;;;;;5031188;28;20611;-45
2021/05/26 03:32:44;;;;;;;9.30;5.72;;;9.50;99.90;;;;;;5030813;28;20112;-46
2021/05/26 03:35:12;;;;;;;8.50;6.28;;;9.50;99.90;;;;;;5029786;28;20025;-45
2021/05/26 03:37:38;;;;;;;9.90;6.10;;;9.50;99.90;;;;;;5030010;28;20048;-45
2021/05/26 03:40:06;;;;;;;9.38;6.20;;;9.50;99.90;;;;;;5030913;28;20025;-45
2021/05/26 03:42:31;;;;;;;9.77;6.07;;;9.50;99.90;;;;;;5029736;28;20025;-46
2021/05/26 03:44:57;;;;;;;9.45;6.70;;;9.60;99.90;;;;;;5029573;28;20530;-45
2021/05/26 03:47:22;;;;;;;11.00;6.15;;;9.60;99.90;;;;;;5030160;28;20565;-45
2021/05/26 03:49:48;;;;;;;8.05;5.85;;;9.70;99.90;;;;;;5030816;28;20029;-45
2021/05/26 03:52:14;;;;;;;10.43;6.60;;;9.70;99.90;;;;;;5033509;28;20358;-45
2021/05/26 03:54:40;;;;;;;11.45;5.75;;;9.60;99.90;;;;;;5039118;28;20507;-45
2021/05/26 03:57:06;;;;;;;9.18;6.97;;;9.60;99.90;;;;;;5041499;28;20045;-49
2021/05/26 03:59:32;;;;;;;9.38;6.43;;;9.50;99.90;;;;;;5039104;28;20032;-46
2021/05/26 04:01:57;;;;;;;13.25;6.97;;;9.50;99.90;;;;;;5047283;28;20021;-46
2021/05/26 04:04:23;;;;;;;11.18;6.20;;;9.60;99.90;;;;;;5036631;28;20020;-47
2021/05/26 04:06:48;;;;;;;11.05;5.75;;;9.60;99.90;;;;;;5048244;28;20025;-46
2021/05/26 04:09:14;;;;;;;9.48;6.18;;;9.60;99.90;;;;;;5049231;28;20558;-47
2021/05/26 04:11:41;;;;;;;8.73;5.88;;;9.60;99.90;;;;;;5049591;28;20071;-46
2021/05/26 04:14:06;;;;;;;13.07;6.88;;;9.70;99.90;;;;;;5050709;28;20063;-46
2021/05/26 04:16:32;;;;;;;9.32;6.57;;;9.70;99.90;;;;;;5050370;28;20108;-46
2021/05/26 04:18:58;;;;;;;11.38;6.57;;;9.70;99.90;;;;;;5049538;28;20119;-45
2021/05/26 04:21:23;;;;;;;10.40;6.63;;;9.70;99.90;;;;;;5050515;28;20550;-45
2021/05/26 04:23:49;;;;;;;8.93;7.47;;;9.70;99.90;;;;;;5048715;28;20183;-45
2021/05/26 04:26:15;;;;;;;8.52;6.93;;;9.60;99.90;;;;;;5049879;28;20079;-44
2021/05/26 04:28:45;;;;;;;9.05;7.20;;;9.60;99.90;;;;;;5049398;28;20021;-45
2021/05/26 04:31:12;;;;;;;11.18;7.45;;;9.50;99.90;;;;;;5050064;28;20028;-46
2021/05/26 04:33:38;;;;;;;9.38;7.47;;;9.60;99.90;;;;;;5030544;28;20053;-44
2021/05/26 04:36:04;;;;;;;11.70;7.93;;;9.60;99.90;;;;;;5029827;28;20101;-45
2021/05/26 04:38:30;;;;;;;13.45;7.10;;;9.70;99.90;;;;;;5028332;28;20037;-47
2021/05/26 04:40:56;;;;;;;12.13;7.22;;;9.60;99.90;;;;;;5030005;28;20029;-45
2021/05/26 04:43:21;;;;;;;15.98;8.00;;;9.70;99.90;;;;;;5029830;28;20033;-44
2021/05/26 04:45:47;;;;;;;14.60;7.20;;;9.70;99.90;;;;;;5029638;28;20063;-45
2021/05/26 04:48:13;;;;;;;11.50;7.07;;;9.70;99.90;;;;;;5029300;28;20045;-45
2021/05/26 04:50:38;;;;;;;14.07;6.88;;;9.80;99.90;;;;;;5030086;28;20188;-45
2021/05/26 04:53:04;;;;;;;18.00;8.77;;;9.70;99.90;;;;;;5029499;28;20021;-45
2021/05/26 04:55:29;;;;;;;11.82;6.20;;;9.80;99.90;;;;;;5029212;28;20049;-46
2021/05/26 04:58:03;;;;;;;9.30;7.00;;;9.80;99.90;;;;;;5029023;28;20033;-46
2021/05/26 05:00:30;;;;;;;13.05;6.97;;;9.80;99.90;;;;;;5029529;28;20045;-46
2021/05/26 05:02:59;;;;;;;13.02;7.18;;;9.80;99.90;;;;;;5029022;28;20052;-44
2021/05/26 05:05:25;;;;;;;11.82;6.78;;;9.80;99.90;;;;;;5029115;28;20349;-45
2021/05/26 05:07:50;;;;;;;11.75;7.00;;;9.80;99.90;;;;;;5028477;28;20080;-45
2021/05/26 05:10:16;;;;;;;12.90;6.93;;;9.80;99.90;;;;;;5032105;28;20072;-45
2021/05/26 05:12:42;;;;;;;8.82;5.93;;;9.80;99.90;;;;;;5043282;28;20035;-45
2021/05/26 05:15:08;;;;;;;8.70;6.50;;;9.90;99.90;;;;;;5047834;28;20242;-42
2021/05/26 05:17:34;;;;;;;10.52;6.45;;;9.90;99.90;;;;;;5048027;28;20091;-45
2021/05/26 05:20:00;;;;;;;11.73;6.00;;;10.00;99.90;;;;;;5034170;28;20021;-44
2021/05/26 05:22:26;;;;;;;12.02;6.22;;;10.10;99.90;;;;;;5038965;28;20039;-43
2021/05/26 05:24:52;;;;;;;8.45;5.50;;;10.20;99.90;;;;;;5037223;28;20249;-44
2021/05/26 05:27:18;;;;;;;15.38;6.57;;;10.30;99.90;;;;;;5036150;28;20037;-45
2021/05/26 05:29:46;;;;;;;13.82;7.05;;;10.30;99.90;;;;;;5039992;28;20025;-45
2021/05/26 05:32:12;;;;;;;7.15;6.03;;;10.40;99.90;;;;;;5037582;28;20112;-44
2021/05/26 05:34:38;;;;;;;14.95;6.68;;;10.50;99.90;;;;;;5041231;28;20115;-44
2021/05/26 05:37:04;;;;;;;9.93;6.65;;;10.50;99.90;;;;;;5038935;28;20363;-44
2021/05/26 05:39:30;;;;;;;9.73;6.85;;;10.50;99.90;;;;;;5036218;28;20028;-44
2021/05/26 05:41:57;;;;;;;10.07;6.80;;;10.40;99.90;;;;;;5030201;28;20051;-44
2021/05/26 05:44:23;;;;;;;9.18;6.80;;;10.40;99.90;;;;;;5035299;28;20029;-45
2021/05/26 05:46:49;;;;;;;9.65;6.32;;;10.40;99.90;;;;;;5032580;28;20037;-47
2021/05/26 05:49:14;;;;;;;10.52;5.88;;;10.50;99.90;;;;;;5026573;28;20029;-44
2021/05/26 05:51:40;;;;;;;13.30;6.40;;;10.50;99.90;;;;;;5027008;28;20030;-47
2021/05/26 05:54:05;;;;;;;13.30;6.28;;;10.80;99.90;;;;;;5026853;28;20029;-47
2021/05/26 05:56:31;;;;;;;10.95;5.35;;;11.00;99.90;;;;;;5027035;28;20037;-45
2021/05/26 05:58:56;;;;;;;11.88;5.53;;;11.10;99.90;;;;;;5026209;28;20176;-44
2021/05/26 06:01:22;;;;;;;11.10;5.45;;;11.30;99.90;;;;;;5026977;28;20021;-44
2021/05/26 06:03:47;;;;;;;13.57;5.50;;;11.20;99.90;;;;;;5028032;28;20055;-43
2021/05/26 06:06:12;;;;;;;10.52;5.38;;;11.40;99.90;;;;;;5027779;28;20029;-44
2021/05/26 06:08:38;;;;;;;11.40;4.78;;;11.60;99.90;;;;;;5027940;28;20032;-44
2021/05/26 06:11:04;;;;;;;9.15;4.88;;;11.70;99.90;;;;;;5028467;28;20033;-45
2021/05/26 06:13:30;;;;;;;8.25;4.68;;;11.60;99.90;;;;;;5028397;28;20021;-46
2021/05/26 06:15:55;;;;;;;13.00;5.50;;;11.60;99.90;;;;;;5028428;28;20049;-44
2021/05/26 06:18:21;;;;;;;13.13;4.50;;;11.70;99.90;;;;;;5027652;28;20107;-45
2021/05/26 06:20:47;;;;;;;9.07;5.22;;;11.70;99.90;;;;;;5028205;28;20450;-45
2021/05/26 06:23:12;;;;;;;11.10;5.43;;;11.60;99.90;;;;;;5028589;28;20045;-44
2021/05/26 06:25:38;;;;;;;13.05;4.15;;;11.50;99.90;;;;;;5028354;28;20525;-45
2021/05/26 06:28:06;;;;;;;13.35;4.82;;;11.60;99.90;;;;;;5027725;28;20030;-46
2021/05/26 06:30:31;;;;;;;7.57;4.05;;;11.80;99.90;;;;;;5028799;28;20030;-44
2021/05/26 06:32:57;;;;;;;8.35;4.30;;;11.70;99.90;;;;;;5028237;28;20623;-45
2021/05/26 06:35:23;;;;;;;11.90;4.32;;;11.70;99.90;;;;;;5028405;28;20036;-46
2021/05/26 06:37:48;;;;;;;7.88;3.97;;;11.90;99.90;;;;;;5026248;28;20057;-46
2021/05/26 06:40:14;;;;;;;10.80;3.97;;;12.20;99.90;;;;;;5027173;28;20033;-45
2021/05/26 06:42:40;;;;;;;10.20;4.55;;;12.20;99.90;;;;;;5027392;28;20395;-45
2021/05/26 06:45:06;;;;;;;8.85;3.92;;;12.30;99.90;;;;;;5027977;28;20044;-47
2021/05/26 06:47:31;;;;;;;6.80;3.80;;;12.30;99.90;;;;;;5027532;28;20272;-44
2021/05/26 06:49:57;;;;;;;12.45;4.40;;;12.30;99.90;;;;;;5027615;28;20076;-44
2021/05/26 06:52:23;;;;;;;12.05;4.32;;;12.20;99.90;;;;;;5027681;28;20452;-46
2021/05/26 06:54:48;;;;;;;14.30;4.75;;;12.20;99.90;;;;;;5026793;28;20129;-45
2021/05/26 06:57:14;;;;;;;7.32;3.63;;;12.20;99.90;;;;;;5027822;28;20041;-44
2021/05/26 06:59:40;;;;;;;6.72;3.80;;;12.40;99.90;;;;;;5027543;28;20101;-45
2021/05/26 07:02:05;;;;;;;9.35;3.55;;;12.50;99.90;;;;;;5026489;28;20057;-46
2021/05/26 07:04:31;;;;;;;9.75;3.63;;;12.80;99.90;;;;;;5027802;28;20026;-44
2021/05/26 07:06:56;;;;;;;9.60;4.10;;;13.00;99.90;;;;;;5027784;28;20391;-45
2021/05/26 07:09:22;;;;;;;6.18;3.58;;;13.10;99.90;;;;;;5027347;28;20634;-47
2021/05/26 07:11:48;;;;;;;11.30;3.60;;;13.30;99.90;;;;;;5026477;28;20086;-45
2021/05/26 07:14:14;;;;;;;10.35;4.10;;;13.20;99.90;;;;;;5027695;28;20037;-45
2021/05/26 07:16:39;;;;;;;11.25;3.83;;;13.10;99.90;;;;;;5028437;28;20029;-46
2021/05/26 07:19:07;;;;;;;10.10;3.65;;;13.20;99.90;;;;;;5030846;28;20025;-46
2021/05/26 07:21:32;;;;;;;6.38;3.63;;;13.40;99.90;;;;;;5031373;28;20017;-45
2021/05/26 07:23:58;;;;;;;9.35;3.50;;;13.40;99.90;;;;;;5031405;28;20029;-46
2021/05/26 07:26:24;;;;;;;10.25;3.85;;;13.50;99.90;;;;;;5031129;28;20052;-48
2021/05/26 07:28:50;;;;;;;9.75;3.72;;;13.40;99.90;;;;;;5030724;28;20061;-46
2021/05/26 07:31:16;;;;;;;8.38;3.97;;;13.50;99.90;;;;;;5031387;28;20110;-47
2021/05/26 07:33:41;;;;;;;6.07;3.47;;;13.50;99.90;;;;;;5031842;28;20062;-45
2021/05/26 07:36:07;;;;;;;6.60;3.60;;;13.40;99.90;;;;;;5031112;28;20029;-45
2021/05/26 07:38:32;;;;;;;9.55;3.35;;;13.50;99.90;;;;;;5030811;28;20023;-45
2021/05/26 07:40:58;;;;;;;6.70;3.35;;;13.70;99.90;;;;;;5031792;28;20502;-47
2021/05/26 07:43:24;;;;;;;5.60;3.25;;;13.80;99.90;;;;;;5031533;28;20100;-45
2021/05/26 07:45:49;;;;;;;7.88;3.30;;;13.70;99.90;;;;;;5031555;28;20435;-45
2021/05/26 07:48:16;;;;;;;14.27;3.88;;;13.80;99.90;;;;;;5030618;28;20503;-46
2021/05/26 07:50:41;;;;;;;9.93;4.05;;;13.90;99.90;;;;;;5031192;28;20036;-45
2021/05/26 07:53:07;;;;;;;7.45;3.15;;;14.20;99.90;;;;;;5031271;28;20025;-48
2021/05/26 07:55:32;;;;;;;13.20;3.55;;;14.20;99.90;;;;;;5031095;28;20021;-46
2021/05/26 07:57:58;;;;;;;9.73;3.72;;;14.10;99.90;;;;;;5030143;28;20065;-46
2021/05/26 08:00:23;;;;;;;8.75;3.67;;;14.40;99.90;;;;;;5030838;28;20487;-45
2021/05/26 08:02:50;;;;;;;9.15;3.20;;;14.20;99.90;;;;;;5030703;28;20022;-44
2021/05/26 08:05:18;;;;;;;7.03;4.22;;;14.00;99.90;;;;;;5030871;28;20021;-46
2021/05/26 08:07:43;;;;;;;7.93;3.88;;;13.30;99.90;;;;;;5030239;28;20025;-45
2021/05/26 08:10:11;;;;;;;8.15;3.40;;;13.40;99.90;;;;;;5030651;28;20119;-48
2021/05/26 08:12:37;;;;;;;10.15;4.13;;;13.60;99.90;;;;;;5030844;28;20033;-46
2021/05/26 08:15:03;;;;;;;9.05;3.22;;;13.80;99.90;;;;;;5030887;28;20030;-47
2021/05/26 08:17:29;;;;;;;5.50;3.17;;;13.90;99.90;;;;;;5029920;28;20080;-44
2021/05/26 08:19:54;;;;;;;9.18;3.83;;;14.10;99.90;;;;;;5030559;28;20443;-45
2021/05/26 08:22:20;;;;;;;9.00;3.10;;;14.00;99.90;;;;;;5029030;28;20025;-45
2021/05/26 08:24:45;;;;;;;6.38;2.83;;;13.90;99.90;;;;;;5029302;28;20126;-46
2021/05/26 08:27:10;;;;;;;10.95;3.85;;;14.10;99.90;;;;;;5030631;28;20208;-45
2021/05/26 08:29:36;;;;;;;6.53;3.10;;;14.20;99.90;;;;;;5027983;28;20510;-45
2021/05/26 08:32:02;;;;;;;9.07;3.95;;;14.50;99.90;;;;;;5030206;28;20037;-45
2021/05/26 08:34:28;;;;;;;5.97;3.15;;;14.50;99.90;;;;;;5030149;28;20172;-45
2021/05/26 08:36:56;;;;;;;13.02;3.13;;;14.70;99.90;;;;;;5030006;28;20128;-46
2021/05/26 08:39:21;;;;;;;6.53;3.15;;;14.80;99.90;;;;;;5029751;28;20021;-45
2021/05/26 08:41:51;;;;;;;9.55;2.95;;;14.80;99.70;;;;;;5030065;28;20045;-48
2021/05/26 08:44:16;;;;;;;10.65;3.13;;;14.80;99.90;;;;;;5029812;28;20021;-48
2021/05/26 08:46:42;;;;;;;12.25;3.55;;;14.60;99.90;;;;;;5029934;28;20494;-45
2021/05/26 08:49:10;;;;;;;5.10;3.08;;;14.40;99.90;;;;;;5029211;28;20034;-45
2021/05/26 08:51:35;;;;;;;8.45;2.90;;;14.30;99.90;;;;;;5029968;28;20044;-45
2021/05/26 08:54:01;;;;;;;9.80;3.50;;;14.00;99.90;;;;;;5030342;28;20168;-45
2021/05/26 08:56:27;;;;;;;10.00;3.10;;;14.20;99.90;;;;;;5029665;28;20037;-47
2021/05/26 08:58:52;;;;;;;7.45;2.75;;;14.80;99.90;;;;;;5029106;28;20044;-47
2021/05/26 09:01:20;;;;;;;14.95;4.05;;;15.40;99.70;;;;;;5029848;28;20060;-45
2021/05/26 09:03:47;;;;;;;12.48;3.35;;;15.80;99.40;;;;;;5029925;28;20063;-47
2021/05/26 09:06:13;;;;;;;8.95;3.75;;;15.60;98.40;;;;;;5029869;28;20022;-46
2021/05/26 09:08:53;;;;;;;8.27;3.60;;;15.20;99.30;;;;;;5029322;28;20566;-46
2021/05/26 09:11:35;;;;;;;6.93;3.00;;;14.80;99.90;;;;;;5029568;28;20387;-45
2021/05/26 09:14:12;;;;;;;7.82;3.20;;;14.50;99.90;;;;;;5029664;28;20071;-47
2021/05/26 09:16:37;;;;;;;7.30;3.03;;;14.20;99.90;;;;;;5029459;28;20041;-46
2021/05/26 09:19:09;;;;;;;5.93;3.35;;;14.30;99.90;;;;;;5028855;28;20033;-46
2021/05/26 09:21:41;;;;;;;8.93;3.47;;;14.50;99.90;;;;;;5028212;28;20037;-46
2021/05/26 09:24:19;;;;;;;12.55;3.92;;;15.70;99.30;;;;;;5029387;28;20410;-46
2021/05/26 09:26:55;;;;;;;15.90;4.18;;;15.40;98.50;;;;;;5029427;28;20399;-45
2021/05/26 09:29:33;;;;;;;12.25;3.67;;;15.60;97.40;;;;;;5028929;28;20026;-49
2021/05/26 09:32:20;;;;;;;11.27;3.58;;;15.40;98.20;;;;;;5029614;28;20026;-45
2021/05/26 09:34:51;;;;;;;8.18;3.40;;;15.10;98.60;;;;;;5029587;28;20484;-46
2021/05/26 09:37:22;;;;;;;9.60;4.03;;;15.10;98.70;;;;;;5027949;28;20032;-46
2021/05/26 09:39:47;;;;;;;;;;;15.00;98.70;;;;;;5029146;28;20025;-45
2021/05/26 09:42:28;;;;;;;6.40;3.95;;;14.90;99.30;;;;;;5028512;28;19951;-45
2021/05/26 09:45:04;;;;;;;;;;;14.90;99.90;;;;;;5027992;28;20021;-43
2021/05/26 09:47:34;;;;;;;12.02;3.58;;;15.00;99.90;;;;;;5028423;28;20576;-45
2021/05/26 09:50:23;;;;;;;9.57;3.22;;;15.30;99.90;;;;;;5029003;28;20475;-46
2021/05/26 09:53:12;;;;;;;7.60;3.10;;;16.40;98.80;;;;;;5028846;28;20053;-46
2021/05/26 09:55:46;;;;;;;13.48;4.28;;;16.90;96.10;;;;;;5028810;28;20037;-46
2021/05/26 09:58:16;;;;;;;5.90;2.75;;;16.60;94.90;;;;;;5028064;28;20387;-45
2021/05/26 10:00:44;;;;;;;7.53;3.92;;;16.40;96.40;;;;;;5028735;28;20074;-46
2021/05/26 10:03:10;;;;;;;13.85;3.95;;;16.10;97.40;;;;;;5028971;28;20444;-46
2021/05/26 10:05:36;;;;;;;6.95;3.90;;;15.70;99.90;;;;;;5028589;28;20100;-46
2021/05/26 10:08:12;;;;;;;8.25;3.92;;;14.70;99.90;;;;;;5026733;28;20032;-46
2021/05/26 10:10:40;;;;;;;6.15;3.30;;;14.00;99.90;;;;;;5028593;28;20025;-44
2021/05/26 10:13:06;;;;;;;9.90;4.10;;;14.00;99.90;;;;;;5027217;28;20124;-45
2021/05/26 10:15:33;;;;;;;10.55;4.68;;;13.90;99.90;;;;;;5028555;28;20096;-46
2021/05/26 10:18:01;;;;;;;8.27;5.05;;;13.80;99.90;;;;;;5027729;28;20025;-44
2021/05/26 10:20:34;;;;;;;6.22;3.78;;;13.80;99.90;;;;;;5028379;28;20025;-45
2021/05/26 10:23:02;;;;;;;8.00;3.35;;;14.20;99.90;;;;;;5028231;28;20017;-45
2021/05/26 10:25:28;;;;;;;7.53;3.50;;;16.20;99.90;;;;;;5028456;28;20368;-47
2021/05/26 10:27:56;;;;;;;8.55;3.35;;;17.20;99.90;;;;;;5026443;28;20094;-46
2021/05/26 10:30:26;;;;;;;4.60;3.33;;;18.00;99.20;;;;;;5028471;28;20038;-46
2021/05/26 10:33:05;;;;;;;10.23;3.17;;;17.70;96.20;;;;;;5028525;28;20075;-45
2021/05/26 10:35:58;;;;;;;7.20;3.53;;;17.90;94.90;;;;;;5028573;28;20415;-45
2021/05/26 10:38:24;;;;;;;10.43;2.90;;;16.60;96.40;;;;;;5028208;28;20048;-46
2021/05/26 10:40:51;;;;;;;9.75;3.22;;;17.10;97.00;;;;;;5028555;28;20123;-47
2021/05/26 10:43:17;;;;;;;8.85;3.03;;;18.00;96.10;;;;;;5028521;28;20045;-47
2021/05/26 10:45:47;;;;;;;10.05;3.35;;;17.60;91.70;;;;;;5028397;28;20264;-46
2021/05/26 10:48:13;;;;;;;6.23;2.70;;;17.50;92.80;;;;;;5027818;28;20026;-47
2021/05/26 10:50:48;;;;;;;8.80;2.90;;;17.40;91.50;;;;;;5028362;28;20033;-46
2021/05/26 10:53:16;;;;;;;7.18;2.58;;;17.60;92.00;;;;;;5032098;28;20099;-45
2021/05/26 10:55:52;;;;;;;7.55;2.42;;;17.70;90.90;;;;;;5032241;28;20021;-47
2021/05/26 10:58:35;;;;;;;7.32;2.20;;;17.30;88.90;;;;;;5031661;28;20129;-48
2021/05/26 11:01:00;;;;;;;4.80;2.42;;;17.20;87.40;;;;;;5032050;28;20027;-46
2021/05/26 11:03:29;;;;;;;6.40;2.08;;;16.80;91.00;;;;;;5031931;28;20501;-43
2021/05/26 11:05:56;;;;;;;4.22;2.25;;;16.80;89.80;;;;;;5031656;28;20568;-44
2021/05/26 11:08:29;;;;;;;10.73;2.53;;;16.90;90.80;;;;;;5030842;28;20029;-45
2021/05/26 11:10:55;;;;;;;5.97;2.88;;;16.20;93.90;;;;;;5031694;28;20025;-48
2021/05/26 11:13:21;;;;;;;5.18;2.45;;;15.80;97.00;;;;;;5031654;28;20440;-46
2021/05/26 11:15:48;;;;;;;3.70;2.13;;;15.60;99.90;;;;;;5031691;28;20025;-45
2021/05/26 11:18:29;;;;;;;4.63;1.90;;;15.00;99.60;;;;;;5030959;28;20022;-45
2021/05/26 11:20:54;;;;;;;4.05;2.17;;;15.20;97.50;;;;;;5031490;28;20025;-47
2021/05/26 11:23:20;;;;;;;7.88;2.33;;;15.40;98.80;;;;;;5031658;28;20033;-46
2021/05/26 11:25:54;;;;;;;5.07;1.90;;;16.40;96.40;;;;;;5031539;28;20064;-47
2021/05/26 11:28:29;;;;;;;8.55;1.67;;;16.60;95.00;;;;;;5030983;28;20147;-45
2021/05/26 11:31:02;;;;;;;8.18;2.50;;;16.70;92.10;;;;;;5031594;28;20094;-45
2021/05/26 11:33:28;;;;;;;4.00;1.98;;;16.80;90.90;;;;;;5030190;28;20116;-45
2021/05/26 11:35:58;;;;;;;7.10;2.35;;;16.80;90.50;;;;;;5031766;28;20025;-46
2021/05/26 11:38:25;;;;;;;2.85;1.95;;;17.30;90.00;;;;;;5031146;28;20033;-48
2021/05/26 11:40:51;;;;;;;3.45;1.65;;;16.80;90.60;;;;;;5031558;28;20228;-46
2021/05/26 11:43:18;;;;;;;4.60;2.47;;;16.70;91.40;;;;;;5031314;28;20450;-44
2021/05/26 11:45:44;;;;;;;4.22;2.15;;;16.50;91.30;;;;;;5031092;28;20021;-47
2021/05/26 11:48:10;;;;;;;4.20;1.90;;;16.00;92.20;;;;;;5030509;28;20112;-46
2021/05/26 11:50:37;;;;;;;3.75;1.67;;;16.30;91.90;;;;;;5031056;28;20073;-48
2021/05/26 11:53:02;;;;;;;4.28;1.90;;;16.50;92.80;;;;;;5029861;28;20024;-46
2021/05/26 11:55:29;;;;;;;15.32;1.90;;;16.70;91.30;;;;;;5031072;28;20406;-45
2021/05/26 11:57:55;;;;;;;3.53;1.95;;;16.80;90.80;;;;;;5030203;28;20036;-44
2021/05/26 12:00:28;;;;;;;3.88;1.77;;;16.40;90.30;;;;;;5030716;28;20431;-45
2021/05/26 12:02:59;;;;;;;5.68;2.20;;;15.80;91.60;;;;;;5030395;28;20020;-45
2021/05/26 12:05:42;;;;;;;4.75;2.05;;;15.60;94.50;;;;;;5030419;28;20037;-44
2021/05/26 12:08:27;;;;;;;3.15;1.90;;;15.90;94.00;;;;;;5030080;28;20437;-47
2021/05/26 12:11:04;;;;;;;11.18;2.80;;;15.70;94.80;;;;;;5030625;28;20033;-44
2021/05/26 12:13:43;;;;;;;3.60;2.00;;;15.60;97.70;;;;;;5030748;28;20029;-48
2021/05/26 12:16:11;;;;;;;4.20;2.00;;;15.40;98.60;;;;;;5030946;28;20048;-47
2021/05/26 12:18:38;;;;;;;3.03;1.73;;;15.30;96.90;;;;;;5030509;28;20021;-48
2021/05/26 12:21:07;;;;;;;4.65;1.50;;;15.30;97.80;;;;;;5030723;28;20021;-48
2021/05/26 12:23:44;;;;;;;2.08;1.70;;;15.40;98.10;;;;;;5030781;28;20479;-49
2021/05/26 12:26:35;;;;;;;3.97;1.73;;;15.60;98.20;;;;;;5029421;28;20112;-48
2021/05/26 12:29:08;;;;;;;;;;;15.90;99.90;;;;;;5030778;28;20100;-47
2021/05/26 12:31:35;;;;;;;3.30;1.95;;;16.20;98.70;;;;;;5030410;28;19923;-49
2021/05/26 12:34:01;;;;;;;2.88;1.90;;;16.60;98.80;;;;;;5030485;28;20017;-50
2021/05/26 12:36:29;;;;;;;4.07;2.15;;;16.70;95.90;;;;;;5030479;28;20026;-49
2021/05/26 12:39:05;;;;;;;4.38;1.75;;;16.90;94.60;;;;;;5029823;28;20018;-48
2021/05/26 12:41:38;;;;;;;5.60;1.60;;;17.20;92.50;;;;;;5030242;28;20029;-47
2021/05/26 12:44:09;;;;;;;2.50;1.52;;;17.50;90.20;;;;;;5029980;28;20022;-48
2021/05/26 12:46:50;;;;;;;2.90;1.50;;;17.60;88.60;;;;;;5028831;28;20037;-47
2021/05/26 12:49:39;;;;;;;3.85;1.38;;;18.00;84.50;;;;;;5029860;28;20876;-48